createdAt,value
2023-01-17T00:02:21.563Z,91.97
2023-01-17T00:05:11.201Z,90.76
2023-01-17T00:07:56.414Z,90.78
2023-01-17T00:10:26.917Z,90.42
2023-01-17T00:12:56.808Z,90.92
2023-01-17T00:15:24.339Z,91.22
2023-01-17T00:17:51.120Z,91.12
2023-01-17T00:20:39.457Z,91.50
2023-01-17T00:23:35.142Z,91.07
2023-01-17T00:26:04.638Z,91.43
2023-01-17T00:28:42.239Z,90.81
2023-01-17T00:31:15.173Z,90.50
2023-01-17T00:33:42.037Z,91.02
2023-01-17T00:36:09.637Z,90.60
2023-01-17T00:38:38.168Z,90.47
2023-01-17T00:41:07.074Z,91.38
2023-01-17T00:43:52.665Z,90.86
2023-01-17T00:46:37.977Z,90.53
2023-01-17T00:49:23.544Z,90.32
2023-01-17T00:52:11.068Z,90.25
2023-01-17T00:54:56.361Z,90.86
2023-01-17T00:57:42.221Z,90.63
2023-01-17T01:00:30.446Z,90.66
2023-01-17T01:03:15.816Z,91.04
2023-01-17T01:06:01.059Z,91.08
2023-01-17T01:08:48.241Z,91.45
2023-01-17T01:11:39.076Z,91.80
2023-01-17T01:14:29.229Z,91.01
2023-01-17T01:17:14.494Z,91.06
2023-01-17T01:20:04.800Z,91.40
2023-01-17T01:22:50.046Z,91.42
2023-01-17T01:25:35.307Z,91.67
2023-01-17T01:28:31.949Z,91.75
2023-01-17T01:31:24.446Z,91.69
2023-01-17T01:33:52.701Z,91.39
2023-01-17T01:36:20.122Z,92.09
2023-01-17T01:38:46.733Z,91.99
2023-01-17T01:41:13.470Z,92.08
2023-01-17T01:43:49.043Z,92.28
2023-01-17T01:46:27.216Z,91.67
2023-01-17T01:49:02.857Z,91.73
2023-01-17T01:51:38.932Z,91.86
2023-01-17T01:54:12.038Z,91.80
2023-01-17T01:56:40.538Z,92.88
2023-01-17T01:59:14.195Z,92.69
2023-01-17T02:01:41.033Z,93.02
2023-01-17T02:04:11.655Z,93.52
2023-01-17T02:06:56.350Z,93.15
2023-01-17T02:09:24.253Z,93.16
2023-01-17T02:11:51.167Z,92.96
2023-01-17T02:14:20.397Z,93.46
2023-01-17T02:16:53.052Z,93.28
2023-01-17T02:19:45.761Z,92.74
2023-01-17T02:22:27.605Z,92.89
2023-01-17T02:25:09.679Z,92.88
2023-01-17T02:28:13.577Z,92.26
2023-01-17T02:30:46.126Z,92.83
2023-01-17T02:33:31.024Z,92.72
2023-01-17T02:36:22.569Z,93.04
2023-01-17T02:39:12.074Z,93.75
2023-01-17T02:41:45.998Z,93.46
2023-01-17T02:44:18.761Z,93.98
2023-01-17T02:46:57.416Z,93.47
2023-01-17T02:49:31.122Z,93.55
2023-01-17T02:52:08.334Z,93.26
2023-01-17T02:54:37.657Z,93.07
2023-01-17T02:57:22.864Z,93.74
2023-01-17T03:00:01.755Z,94.31
2023-01-17T03:02:43.807Z,93.97
2023-01-17T03:05:24.103Z,94.23
2023-01-17T03:07:52.357Z,94.20
2023-01-17T03:10:21.177Z,94.38
2023-01-17T03:12:48.506Z,94.67
2023-01-17T03:15:17.648Z,94.70
2023-01-17T03:17:50.652Z,95.20
2023-01-17T03:20:17.613Z,94.83
2023-01-17T03:22:44.337Z,95.31
2023-01-17T03:25:13.160Z,95.28
2023-01-17T03:27:39.858Z,95.53
2023-01-17T03:30:07.424Z,95.31
2023-01-17T03:32:34.114Z,95.91
2023-01-17T03:35:00.689Z,95.09
2023-01-17T03:37:27.358Z,95.65
2023-01-17T03:39:56.493Z,95.20
2023-01-17T03:42:23.032Z,94.68
2023-01-17T03:44:49.672Z,95.13
2023-01-17T03:47:16.306Z,94.41
2023-01-17T03:49:42.844Z,95.29
2023-01-17T03:52:09.502Z,95.15
2023-01-17T03:54:37.906Z,95.32
2023-01-17T03:57:04.986Z,94.62
2023-01-17T03:59:34.109Z,94.43
2023-01-17T04:02:01.416Z,94.75
2023-01-17T04:04:28.091Z,94.77
2023-01-17T04:06:57.086Z,94.89
2023-01-17T04:09:23.675Z,95.21
2023-01-17T04:11:51.072Z,95.32
2023-01-17T04:14:17.736Z,95.06
2023-01-17T04:16:44.621Z,94.78
2023-01-17T04:19:14.361Z,94.89
2023-01-17T04:21:40.970Z,95.25
2023-01-17T04:24:08.248Z,95.19
2023-01-17T04:26:35.077Z,95.09
2023-01-17T04:29:01.844Z,94.54
2023-01-17T04:31:28.515Z,95.64
2023-01-17T04:33:55.136Z,94.95
2023-01-17T04:36:21.906Z,94.80
2023-01-17T04:38:50.906Z,95.24
2023-01-17T04:41:17.477Z,95.61
2023-01-17T04:43:44.662Z,95.22
2023-01-17T04:46:11.623Z,95.29
2023-01-17T04:48:38.471Z,95.28
2023-01-17T04:51:07.700Z,95.95
2023-01-17T04:53:34.464Z,95.65
2023-01-17T04:56:01.087Z,95.57
2023-01-17T04:58:30.653Z,95.90
2023-01-17T05:01:02.028Z,95.51
2023-01-17T05:03:29.555Z,95.51
2023-01-17T05:05:56.382Z,95.67
2023-01-17T05:08:22.957Z,95.70
2023-01-17T05:10:49.605Z,95.88
2023-01-17T05:13:16.513Z,95.68
2023-01-17T05:15:43.888Z,95.51
2023-01-17T05:18:15.747Z,95.50
2023-01-17T05:20:42.829Z,95.67
2023-01-17T05:23:10.095Z,95.64
2023-01-17T05:25:37.516Z,94.75
2023-01-17T05:28:07.322Z,95.67
2023-01-17T05:30:36.239Z,95.39
2023-01-17T05:33:02.891Z,96.59
2023-01-17T05:35:35.278Z,96.20
2023-01-17T05:38:02.334Z,95.85
2023-01-17T05:40:31.112Z,95.74
2023-01-17T05:43:00.168Z,95.96
2023-01-17T05:45:28.879Z,96.00
2023-01-17T05:47:59.266Z,95.92
2023-01-17T05:50:34.202Z,95.81
2023-01-17T05:53:09.829Z,96.05
2023-01-17T05:55:37.012Z,95.91
2023-01-17T05:58:06.925Z,96.19
2023-01-17T06:00:33.623Z,95.93
2023-01-17T06:03:01.246Z,95.89
2023-01-17T06:05:28.878Z,95.94
2023-01-17T06:07:56.535Z,95.97
2023-01-17T06:10:24.084Z,95.82
2023-01-17T06:13:00.104Z,96.18
2023-01-17T06:15:26.707Z,96.11
2023-01-17T06:17:55.545Z,96.52
2023-01-17T06:20:24.464Z,96.03
2023-01-17T06:22:53.225Z,96.13
2023-01-17T06:25:19.812Z,96.54
2023-01-17T06:27:46.451Z,96.40
2023-01-17T06:30:15.953Z,96.40
2023-01-17T06:32:42.614Z,96.60
2023-01-17T06:35:09.913Z,96.31
2023-01-17T06:37:39.010Z,95.98
2023-01-17T06:40:06.595Z,96.37
2023-01-17T06:42:35.674Z,96.79
2023-01-17T06:45:02.580Z,96.32
2023-01-17T06:47:31.487Z,96.76
2023-01-17T06:49:58.287Z,96.58
2023-01-17T06:52:24.979Z,96.87
2023-01-17T06:54:54.142Z,96.96
2023-01-17T06:57:20.856Z,96.80
2023-01-17T06:59:47.693Z,96.66
2023-01-17T07:02:16.823Z,96.81
2023-01-17T07:04:48.015Z,96.73
2023-01-17T07:07:14.647Z,96.80
2023-01-17T07:09:44.112Z,96.84
2023-01-17T07:12:10.740Z,97.01
2023-01-17T07:14:37.729Z,96.63
2023-01-17T07:17:04.800Z,96.79
2023-01-17T07:19:35.712Z,96.87
2023-01-17T07:22:05.010Z,96.87
2023-01-17T07:24:32.894Z,96.61
2023-01-17T07:27:02.021Z,97.20
2023-01-17T07:29:30.864Z,96.86
2023-01-17T07:31:59.701Z,97.14
2023-01-17T07:34:33.558Z,96.53
2023-01-17T07:37:00.442Z,96.91
2023-01-17T07:39:27.261Z,96.86
2023-01-17T07:41:54.712Z,97.03
2023-01-17T07:44:22.061Z,96.81
2023-01-17T07:46:51.248Z,96.99
2023-01-17T07:49:20.602Z,97.02
2023-01-17T07:51:47.934Z,96.85
2023-01-17T07:54:17.006Z,97.32
2023-01-17T07:56:47.148Z,96.91
2023-01-17T07:59:14.212Z,96.46
2023-01-17T08:01:41.028Z,96.63
2023-01-17T08:04:11.723Z,96.31
2023-01-17T08:06:42.429Z,96.34
2023-01-17T08:09:09.217Z,96.29
2023-01-17T08:11:36.211Z,96.58
2023-01-17T08:14:02.811Z,96.66
2023-01-17T08:16:29.867Z,96.78
2023-01-17T08:18:59.496Z,96.42
2023-01-17T08:21:26.529Z,96.86
2023-01-17T08:23:55.634Z,97.00
2023-01-17T08:26:22.597Z,96.70
2023-01-17T08:29:00.550Z,96.52
2023-01-17T08:31:31.781Z,96.00
2023-01-17T08:33:58.493Z,96.22
2023-01-17T08:36:25.948Z,96.41
2023-01-17T08:38:53.234Z,96.11
2023-01-17T08:41:20.983Z,95.70
2023-01-17T08:43:49.168Z,95.73
2023-01-17T08:46:16.327Z,95.19
2023-01-17T08:48:43.586Z,95.41
2023-01-17T08:51:11.164Z,94.83
2023-01-17T08:53:38.059Z,94.99
2023-01-17T08:56:05.920Z,94.54
2023-01-17T08:58:33.175Z,94.45
2023-01-17T09:01:02.300Z,94.76
2023-01-17T09:03:30.113Z,94.75
2023-01-17T09:06:11.525Z,95.21
2023-01-17T09:08:38.531Z,94.90
2023-01-17T09:11:12.375Z,94.56
2023-01-17T09:13:39.474Z,94.24
2023-01-17T09:16:09.637Z,94.44
2023-01-17T09:18:36.787Z,94.13
2023-01-17T09:21:14.713Z,94.13
2023-01-17T09:23:41.847Z,93.61
2023-01-17T09:26:20.022Z,93.17
2023-01-17T09:28:46.875Z,93.20
2023-01-17T09:31:17.750Z,92.96
2023-01-17T09:33:44.807Z,92.69
2023-01-17T09:36:14.015Z,92.71
2023-01-17T09:38:44.194Z,91.97
2023-01-17T09:41:28.043Z,92.52
2023-01-17T09:43:57.572Z,91.54
2023-01-17T09:46:29.608Z,91.13
2023-01-17T09:49:14.398Z,90.58
2023-01-17T09:51:42.497Z,89.65
2023-01-17T09:54:22.765Z,88.72
2023-01-17T09:57:16.513Z,88.93
2023-01-17T10:00:08.682Z,89.56
2023-01-17T10:02:57.215Z,88.89
2023-01-17T10:05:43.396Z,89.04
2023-01-17T10:08:15.774Z,88.98
2023-01-17T10:11:15.369Z,88.81
2023-01-17T10:14:06.473Z,88.84
2023-01-17T10:16:55.961Z,88.80
2023-01-17T10:20:01.971Z,88.11
2023-01-17T10:22:40.840Z,88.37
2023-01-17T10:25:33.216Z,87.38
2023-01-17T10:28:08.624Z,87.64
2023-01-17T10:30:42.575Z,87.96
2023-01-17T10:33:18.351Z,87.87
2023-01-17T10:35:59.975Z,87.77
2023-01-17T10:38:37.068Z,87.24
2023-01-17T10:41:27.676Z,87.46
2023-01-17T10:44:32.582Z,87.69
2023-01-17T10:47:14.443Z,87.54
2023-01-17T10:49:52.798Z,87.18
2023-01-17T10:52:29.419Z,86.74
2023-01-17T10:55:17.243Z,86.98
2023-01-17T10:57:49.275Z,86.77
2023-01-17T11:00:22.027Z,86.68
2023-01-17T11:02:50.919Z,86.62
2023-01-17T11:05:25.029Z,86.35
2023-01-17T11:07:59.951Z,86.66
2023-01-17T11:10:47.204Z,87.17
2023-01-17T11:13:25.010Z,87.41
2023-01-17T11:15:57.803Z,87.22
2023-01-17T11:18:28.732Z,87.45
2023-01-17T11:21:17.472Z,87.83
2023-01-17T11:23:54.828Z,88.12
2023-01-17T11:26:27.450Z,87.89
2023-01-17T11:29:14.723Z,87.94
2023-01-17T11:31:41.532Z,87.77
2023-01-17T11:34:22.338Z,87.26
2023-01-17T11:36:50.125Z,87.12
2023-01-17T11:39:21.954Z,86.12
2023-01-17T11:41:48.933Z,85.75
2023-01-17T11:44:30.522Z,86.17
2023-01-17T11:47:17.084Z,86.16
2023-01-17T11:49:46.709Z,85.61
2023-01-17T11:52:27.406Z,85.69
2023-01-17T11:54:55.539Z,85.35
2023-01-17T11:57:28.127Z,85.05
2023-01-17T12:00:03.933Z,85.38
2023-01-17T12:02:42.741Z,85.68
2023-01-17T12:05:44.447Z,85.78
2023-01-17T12:08:22.854Z,85.95
2023-01-17T12:10:52.799Z,85.31
2023-01-17T12:13:54.812Z,85.27
2023-01-17T12:16:45.958Z,85.46
2023-01-17T12:19:33.761Z,85.25
2023-01-17T12:22:19.647Z,84.78
2023-01-17T12:25:02.047Z,84.29
2023-01-17T12:27:43.616Z,83.75
2023-01-17T12:30:10.541Z,83.36
2023-01-17T12:32:53.432Z,83.60
2023-01-17T12:35:36.861Z,82.78
2023-01-17T12:38:08.713Z,83.03
2023-01-17T12:41:01.590Z,83.13
2023-01-17T12:43:33.511Z,82.33
2023-01-17T12:46:05.108Z,82.50
2023-01-17T12:48:36.824Z,82.33
2023-01-17T12:51:43.333Z,82.10
2023-01-17T12:54:21.950Z,81.62
2023-01-17T12:57:02.476Z,81.23
2023-01-17T12:59:57.538Z,80.83
2023-01-17T13:02:42.912Z,80.62
2023-01-17T13:05:16.923Z,80.05
2023-01-17T13:07:56.510Z,80.06
2023-01-17T13:10:38.148Z,79.83
2023-01-17T13:13:32.858Z,80.11
2023-01-17T13:16:11.715Z,79.93
2023-01-17T13:18:45.459Z,79.66
2023-01-17T13:21:33.189Z,79.60
2023-01-17T13:23:59.910Z,79.30
2023-01-17T13:26:55.645Z,79.71
2023-01-17T13:29:50.578Z,79.16
2023-01-17T13:32:17.341Z,79.46
2023-01-17T13:34:57.407Z,78.94
2023-01-17T13:38:09.042Z,79.72
2023-01-17T13:40:51.709Z,79.20
2023-01-17T13:43:41.156Z,79.51
2023-01-17T13:46:11.301Z,79.44
2023-01-17T13:48:40.851Z,79.06
2023-01-17T13:51:09.657Z,79.06
2023-01-17T13:53:36.995Z,78.98
2023-01-17T13:56:18.912Z,79.13
2023-01-17T13:58:47.233Z,79.31
2023-01-17T14:01:14.053Z,79.23
2023-01-17T14:03:52.775Z,78.61
2023-01-17T14:06:40.717Z,78.88
2023-01-17T14:09:19.537Z,79.44
2023-01-17T14:12:03.288Z,79.07
2023-01-17T14:14:42.897Z,78.96
2023-01-17T14:17:30.878Z,79.32
2023-01-17T14:20:19.055Z,78.92
2023-01-17T14:22:58.055Z,79.60
2023-01-17T14:25:31.143Z,79.38
2023-01-17T14:28:06.391Z,79.31
2023-01-17T14:30:37.277Z,79.27
2023-01-17T14:33:04.791Z,79.63
2023-01-17T14:35:36.111Z,79.33
2023-01-17T14:38:05.671Z,79.41
2023-01-17T14:40:34.273Z,79.26
2023-01-17T14:43:05.548Z,79.40
2023-01-17T14:45:35.193Z,78.93
2023-01-17T14:48:12.694Z,79.20
2023-01-17T14:50:41.543Z,79.51
2023-01-17T14:53:11.522Z,78.76
2023-01-17T14:55:39.462Z,79.10
2023-01-17T14:58:06.098Z,79.25
2023-01-17T15:00:39.448Z,78.74
2023-01-17T15:03:11.437Z,78.61
2023-01-17T15:05:41.710Z,79.08
2023-01-17T15:08:15.068Z,78.46
2023-01-17T15:10:51.643Z,79.37
2023-01-17T15:13:29.884Z,79.57
2023-01-17T15:16:17.786Z,79.00
2023-01-17T15:18:44.512Z,79.65
2023-01-17T15:21:22.939Z,79.04
2023-01-17T15:24:02.278Z,79.31
2023-01-17T15:26:33.453Z,79.76
2023-01-17T15:29:31.789Z,80.15
2023-01-17T15:32:03.622Z,80.03
2023-01-17T15:34:43.098Z,80.09
2023-01-17T15:37:36.244Z,80.76
2023-01-17T15:40:25.139Z,80.22
2023-01-17T15:42:58.259Z,81.21
2023-01-17T15:45:29.511Z,81.21
2023-01-17T15:47:56.199Z,81.81
2023-01-17T15:50:30.878Z,80.92
2023-01-17T15:53:06.170Z,81.80
2023-01-17T15:55:37.038Z,82.12
2023-01-17T15:58:05.688Z,82.19
2023-01-17T16:00:39.341Z,82.34
2023-01-17T16:03:31.216Z,82.27
2023-01-17T16:06:00.820Z,82.97
2023-01-17T16:08:38.877Z,82.52
2023-01-17T16:11:10.827Z,83.30
2023-01-17T16:13:43.621Z,82.98
2023-01-17T16:16:16.725Z,83.30
2023-01-17T16:18:43.990Z,83.04
2023-01-17T16:21:19.234Z,83.68
2023-01-17T16:23:49.035Z,84.25
2023-01-17T16:26:16.173Z,84.19
2023-01-17T16:28:43.082Z,84.07
2023-01-17T16:31:09.761Z,84.58
2023-01-17T16:33:36.461Z,84.39
2023-01-17T16:36:03.398Z,84.83
2023-01-17T16:38:32.431Z,84.83
2023-01-17T16:40:59.399Z,84.99
2023-01-17T16:43:26.298Z,84.74
2023-01-17T16:45:54.160Z,85.00
2023-01-17T16:48:21.868Z,85.60
2023-01-17T16:50:50.893Z,85.68
2023-01-17T16:53:24.717Z,85.12
2023-01-17T16:55:57.327Z,85.74
2023-01-17T16:58:24.370Z,85.88
2023-01-17T17:00:55.752Z,86.19
2023-01-17T17:03:22.764Z,86.08
2023-01-17T17:06:00.359Z,86.21
2023-01-17T17:08:29.677Z,85.95
2023-01-17T17:11:07.546Z,86.14
2023-01-17T17:13:37.274Z,85.92
2023-01-17T17:16:14.866Z,86.32
2023-01-17T17:18:42.303Z,86.07
2023-01-17T17:21:09.069Z,86.65
2023-01-17T17:23:36.415Z,86.47
2023-01-17T17:26:03.066Z,86.74
2023-01-17T17:28:30.167Z,86.53
2023-01-17T17:31:11.258Z,87.12
2023-01-17T17:33:40.375Z,86.90
2023-01-17T17:36:10.405Z,86.74
2023-01-17T17:38:48.464Z,86.97
2023-01-17T17:41:18.102Z,87.15
2023-01-17T17:43:44.900Z,86.66
2023-01-17T17:46:11.643Z,86.69
2023-01-17T17:48:53.910Z,87.25
2023-01-17T17:51:32.077Z,86.95
2023-01-17T17:54:04.706Z,87.12
2023-01-17T17:56:34.531Z,87.74
2023-01-17T17:59:02.715Z,87.27
2023-01-17T18:01:29.675Z,87.20
2023-01-17T18:04:00.557Z,87.26
2023-01-17T18:06:27.572Z,87.13
2023-01-17T18:08:54.422Z,87.32
2023-01-17T18:11:23.920Z,87.41
2023-01-17T18:13:51.601Z,87.41
2023-01-17T18:16:32.683Z,87.35
2023-01-17T18:19:00.021Z,87.46
2023-01-17T18:21:28.764Z,87.63
2023-01-17T18:24:00.320Z,87.55
2023-01-17T18:26:30.154Z,88.06
2023-01-17T18:29:01.723Z,87.60
2023-01-17T18:31:30.160Z,87.75
2023-01-17T18:33:59.589Z,88.00
2023-01-17T18:36:28.956Z,88.09
2023-01-17T18:38:56.529Z,87.61
2023-01-17T18:41:28.800Z,87.81
2023-01-17T18:43:56.288Z,87.74
2023-01-17T18:46:23.376Z,87.74
2023-01-17T18:48:51.566Z,88.14
2023-01-17T18:51:19.770Z,88.08
2023-01-17T18:53:47.359Z,88.04
2023-01-17T18:56:22.116Z,88.40
2023-01-17T18:58:52.593Z,87.97
2023-01-17T19:01:25.113Z,88.25
2023-01-17T19:03:57.893Z,88.08
2023-01-17T19:06:34.330Z,88.61
2023-01-17T19:09:01.448Z,88.82
2023-01-17T19:11:30.839Z,88.56
2023-01-17T19:14:00.481Z,88.28
2023-01-17T19:16:29.955Z,88.43
2023-01-17T19:19:08.212Z,88.41
2023-01-17T19:21:35.495Z,88.22
2023-01-17T19:24:02.192Z,88.19
2023-01-17T19:26:30.127Z,88.41
2023-01-17T19:29:02.168Z,88.63
2023-01-17T19:31:30.543Z,88.62
2023-01-17T19:33:59.318Z,88.74
2023-01-17T19:36:33.936Z,88.70
2023-01-17T19:39:05.887Z,88.40
2023-01-17T19:41:45.831Z,88.66
2023-01-17T19:44:15.283Z,88.63
2023-01-17T19:46:42.066Z,88.30
2023-01-17T19:49:10.275Z,88.58
2023-01-17T19:51:39.438Z,88.27
2023-01-17T19:54:07.963Z,88.73
2023-01-17T19:56:35.226Z,88.54
2023-01-17T19:59:02.427Z,88.50
2023-01-17T20:01:32.202Z,88.52
2023-01-17T20:04:00.158Z,88.42
2023-01-17T20:06:29.581Z,88.88
2023-01-17T20:08:57.193Z,88.45
2023-01-17T20:11:25.607Z,89.11
2023-01-17T20:13:54.486Z,88.64
2023-01-17T20:16:24.724Z,88.46
2023-01-17T20:18:52.398Z,88.64
2023-01-17T20:21:24.740Z,89.04
2023-01-17T20:23:55.422Z,89.05
2023-01-17T20:26:29.268Z,89.12
2023-01-17T20:28:55.913Z,89.02
2023-01-17T20:31:24.546Z,89.30
2023-01-17T20:33:53.431Z,88.60
2023-01-17T20:36:25.580Z,88.61
2023-01-17T20:38:54.734Z,88.91
2023-01-17T20:41:21.266Z,88.67
2023-01-17T20:43:51.184Z,88.90
2023-01-17T20:46:20.262Z,88.72
2023-01-17T20:48:52.100Z,88.85
2023-01-17T20:51:20.460Z,88.65
2023-01-17T20:53:51.566Z,89.40
2023-01-17T20:56:19.305Z,89.08
2023-01-17T20:58:51.560Z,88.81
2023-01-17T21:01:19.888Z,89.38
2023-01-17T21:03:51.531Z,88.65
2023-01-17T21:06:19.609Z,88.91
2023-01-17T21:08:47.947Z,89.29
2023-01-17T21:11:17.090Z,89.22
2023-01-17T21:13:44.113Z,88.92
2023-01-17T21:16:13.577Z,88.93
2023-01-17T21:18:40.255Z,89.02
2023-01-17T21:21:09.506Z,89.02
2023-01-17T21:23:37.566Z,89.25
2023-01-17T21:26:06.269Z,89.50
2023-01-17T21:28:35.113Z,88.96
2023-01-17T21:31:19.698Z,89.28
2023-01-17T21:33:47.653Z,88.63
2023-01-17T21:36:17.734Z,88.62
2023-01-17T21:38:49.726Z,88.92
2023-01-17T21:41:16.371Z,89.18
2023-01-17T21:43:43.043Z,89.00
2023-01-17T21:46:10.043Z,88.63
2023-01-17T21:48:38.766Z,88.69
2023-01-17T21:51:07.323Z,88.49
2023-01-17T21:53:38.538Z,89.22
2023-01-17T21:56:26.786Z,89.22
2023-01-17T21:58:56.803Z,88.90
2023-01-17T22:01:26.211Z,88.79
2023-01-17T22:03:55.634Z,88.89
2023-01-17T22:06:25.129Z,88.84
2023-01-17T22:08:51.788Z,88.62
2023-01-17T22:11:20.972Z,88.43
2023-01-17T22:13:48.109Z,88.55
2023-01-17T22:16:18.029Z,88.84
2023-01-17T22:18:45.929Z,88.60
2023-01-17T22:21:17.022Z,89.06
2023-01-17T22:23:57.659Z,88.46
2023-01-17T22:26:27.297Z,88.65
2023-01-17T22:28:54.857Z,88.95
2023-01-17T22:31:24.147Z,88.53
2023-01-17T22:34:02.329Z,88.61
2023-01-17T22:36:31.909Z,88.42
2023-01-17T22:38:59.492Z,88.98
2023-01-17T22:41:33.056Z,88.81
2023-01-17T22:44:05.565Z,89.45
2023-01-17T22:46:35.543Z,89.38
2023-01-17T22:49:02.144Z,89.12
2023-01-17T22:51:29.365Z,88.57
2023-01-17T22:53:58.830Z,89.30
2023-01-17T22:56:28.671Z,88.71
2023-01-17T22:58:55.937Z,89.47
2023-01-17T23:01:28.490Z,89.34
2023-01-17T23:04:00.529Z,89.21
2023-01-17T23:06:45.425Z,89.16
2023-01-17T23:09:15.316Z,89.38
2023-01-17T23:11:52.228Z,89.37
2023-01-17T23:14:22.345Z,89.29
2023-01-17T23:17:21.011Z,89.65
2023-01-17T23:19:55.204Z,89.44
2023-01-17T23:22:24.248Z,89.75
2023-01-17T23:24:54.787Z,89.10
2023-01-17T23:27:50.049Z,89.15
2023-01-17T23:30:17.019Z,89.70
2023-01-17T23:32:47.327Z,89.10
2023-01-17T23:35:17.709Z,89.88
2023-01-17T23:38:03.150Z,89.52
2023-01-17T23:40:31.505Z,90.37
2023-01-17T23:43:16.620Z,90.11
2023-01-17T23:45:43.495Z,89.96
2023-01-17T23:48:10.743Z,89.91
2023-01-17T23:50:47.228Z,89.81
2023-01-17T23:53:22.435Z,89.54
2023-01-17T23:56:04.454Z,90.12
2023-01-17T23:58:31.244Z,89.68
